createdAt,value
2018-12-14T00:02:14.091Z,1.60
2018-12-14T00:04:41.581Z,1.60
2018-12-14T00:07:09.353Z,1.50
2018-12-14T00:09:36.850Z,1.50
2018-12-14T00:12:04.336Z,1.60
2018-12-14T00:14:31.869Z,1.50
2018-12-14T00:16:59.369Z,1.50
2018-12-14T00:19:26.914Z,1.60
2018-12-14T00:21:54.402Z,1.60
2018-12-14T00:24:21.896Z,1.60
2018-12-14T00:26:49.456Z,1.60
2018-12-14T00:29:16.948Z,1.70
2018-12-14T00:31:44.450Z,1.60
2018-12-14T00:34:12.061Z,1.50
2018-12-14T00:36:39.828Z,1.50
2018-12-14T00:39:07.428Z,1.60
2018-12-14T00:41:34.917Z,1.60
2018-12-14T00:44:02.444Z,1.70
2018-12-14T00:46:29.935Z,1.70
2018-12-14T00:48:57.537Z,1.70
2018-12-14T00:51:25.037Z,1.60
2018-12-14T00:53:52.557Z,1.70
2018-12-14T00:56:20.045Z,1.70
2018-12-14T00:58:47.579Z,1.80
2018-12-14T01:01:15.076Z,1.80
2018-12-14T01:03:42.573Z,1.70
2018-12-14T01:06:10.107Z,1.80
2018-12-14T01:08:37.600Z,1.70
2018-12-14T01:11:05.201Z,1.50
2018-12-14T01:13:32.688Z,1.60
2018-12-14T01:16:00.300Z,1.60
2018-12-14T01:18:28.088Z,1.60
2018-12-14T01:20:55.613Z,1.60
2018-12-14T01:23:23.110Z,1.70
2018-12-14T01:25:50.709Z,1.70
2018-12-14T01:28:18.201Z,1.50
2018-12-14T01:30:45.737Z,1.60
2018-12-14T01:33:13.228Z,1.60
2018-12-14T01:35:40.760Z,1.60
2018-12-14T01:38:08.248Z,1.50
2018-12-14T01:40:35.780Z,1.60
2018-12-14T01:43:03.265Z,1.60
2018-12-14T01:45:30.817Z,1.50
2018-12-14T01:47:59.044Z,1.50
2018-12-14T01:50:26.542Z,1.50
2018-12-14T01:52:54.108Z,1.50
2018-12-14T01:55:21.953Z,1.50
2018-12-14T01:57:49.818Z,1.50
2018-12-14T02:00:17.685Z,1.50
2018-12-14T02:02:45.294Z,1.40
2018-12-14T02:05:12.841Z,1.50
2018-12-14T02:07:40.345Z,1.40
2018-12-14T02:10:08.057Z,1.40
2018-12-14T02:12:35.589Z,1.40
2018-12-14T02:15:03.381Z,1.50
2018-12-14T02:17:30.872Z,1.50
2018-12-14T02:19:58.462Z,1.50
2018-12-14T02:22:26.024Z,1.40
2018-12-14T02:24:53.557Z,1.50
2018-12-14T02:27:21.049Z,1.40
2018-12-14T02:29:48.591Z,1.50
2018-12-14T02:32:16.270Z,1.50
2018-12-14T02:34:43.764Z,1.50
2018-12-14T02:37:11.300Z,1.50
2018-12-14T02:39:38.791Z,1.50
2018-12-14T02:42:06.321Z,1.50
2018-12-14T02:44:33.821Z,1.50
2018-12-14T02:47:01.371Z,1.50
2018-12-14T02:49:28.869Z,1.50
2018-12-14T02:51:56.378Z,1.50
2018-12-14T02:54:23.921Z,1.50
2018-12-14T02:56:51.460Z,1.50
2018-12-14T02:59:18.957Z,1.50
2018-12-14T03:01:46.614Z,1.50
2018-12-14T03:04:14.105Z,1.50
2018-12-14T03:06:41.632Z,1.50
2018-12-14T03:09:09.295Z,1.50
2018-12-14T03:11:36.830Z,1.50
2018-12-14T03:14:04.358Z,1.50
2018-12-14T03:16:31.911Z,1.40
2018-12-14T03:18:59.703Z,1.40
2018-12-14T03:21:27.206Z,1.40
2018-12-14T03:23:54.733Z,1.40
2018-12-14T03:26:22.228Z,1.40
2018-12-14T03:28:49.766Z,1.40
2018-12-14T03:31:17.262Z,1.50
2018-12-14T03:33:45.151Z,1.50
2018-12-14T03:36:12.686Z,1.50
2018-12-14T03:38:40.233Z,1.40
2018-12-14T03:41:07.723Z,1.40
2018-12-14T03:43:35.213Z,1.40
2018-12-14T03:46:02.816Z,1.50
2018-12-14T03:48:30.311Z,1.50
2018-12-14T03:50:57.840Z,1.40
2018-12-14T03:53:25.373Z,1.40
2018-12-14T03:55:52.906Z,1.50
2018-12-14T03:58:20.407Z,1.50
2018-12-14T04:00:48.109Z,1.50
2018-12-14T04:03:15.640Z,1.50
2018-12-14T04:05:43.137Z,1.50
2018-12-14T04:08:10.680Z,1.40
2018-12-14T04:10:38.180Z,1.40
2018-12-14T04:13:05.733Z,1.40
2018-12-14T04:15:33.236Z,1.30
2018-12-14T04:18:01.070Z,1.30
2018-12-14T04:20:28.577Z,1.30
2018-12-14T04:22:56.109Z,1.30
2018-12-14T04:25:23.942Z,1.40
2018-12-14T04:27:51.470Z,1.40
2018-12-14T04:30:18.962Z,1.40
2018-12-14T04:32:46.814Z,1.40
2018-12-14T04:35:14.305Z,1.40
2018-12-14T04:37:42.131Z,1.30
2018-12-14T04:40:09.626Z,1.30
2018-12-14T04:42:37.438Z,1.30
2018-12-14T04:45:05.380Z,1.30
2018-12-14T04:47:33.024Z,1.30
2018-12-14T04:50:00.617Z,1.30
2018-12-14T04:52:28.154Z,1.30
2018-12-14T04:54:55.667Z,1.30
2018-12-14T04:57:23.219Z,1.40
2018-12-14T04:59:50.726Z,1.40
2018-12-14T05:02:18.316Z,1.30
2018-12-14T05:04:45.829Z,1.30
2018-12-14T05:07:13.434Z,1.40
2018-12-14T05:09:40.966Z,1.40
2018-12-14T05:12:08.501Z,1.40
2018-12-14T05:14:36.075Z,1.40
2018-12-14T05:17:03.613Z,1.40
2018-12-14T05:19:31.136Z,1.40
2018-12-14T05:21:58.942Z,1.40
2018-12-14T05:24:26.445Z,1.30
2018-12-14T05:26:54.756Z,1.30
2018-12-14T05:29:22.561Z,1.40
2018-12-14T05:31:50.089Z,1.30
2018-12-14T05:34:17.586Z,1.30
2018-12-14T05:36:45.114Z,1.30
2018-12-14T05:39:12.658Z,1.30
2018-12-14T05:41:40.152Z,1.30
2018-12-14T05:44:07.697Z,1.20
2018-12-14T05:46:35.200Z,1.20
2018-12-14T05:49:02.738Z,1.30
2018-12-14T05:51:30.237Z,1.30
2018-12-14T05:53:57.764Z,1.30
2018-12-14T05:56:25.840Z,1.30
2018-12-14T05:58:53.364Z,1.20
2018-12-14T06:01:20.865Z,1.20
2018-12-14T06:03:48.874Z,1.20
2018-12-14T06:06:16.422Z,1.20
2018-12-14T06:08:44.025Z,1.20
2018-12-14T06:11:11.565Z,1.20
2018-12-14T06:13:39.101Z,1.20
2018-12-14T06:16:06.643Z,1.20
2018-12-14T06:18:34.177Z,1.20
2018-12-14T06:21:01.672Z,1.20
2018-12-14T06:23:29.527Z,1.20
2018-12-14T06:25:57.026Z,1.30
2018-12-14T06:28:25.974Z,1.40
2018-12-14T06:30:53.690Z,1.30
2018-12-14T06:33:21.186Z,1.30
2018-12-14T06:35:48.713Z,1.40
2018-12-14T06:38:16.204Z,1.30
2018-12-14T06:40:43.734Z,1.30
2018-12-14T06:43:15.463Z,1.30
2018-12-14T06:45:40.791Z,1.40
2018-12-14T06:48:08.285Z,1.40
2018-12-14T06:50:36.158Z,1.40
2018-12-14T06:53:03.943Z,1.40
2018-12-14T06:55:31.484Z,1.40
2018-12-14T06:57:58.980Z,1.30
2018-12-14T07:00:26.523Z,1.30
2018-12-14T07:02:54.021Z,1.30
2018-12-14T07:05:21.561Z,1.40
2018-12-14T07:07:49.056Z,1.40
2018-12-14T07:10:16.585Z,1.40
2018-12-14T07:12:44.958Z,1.40
2018-12-14T07:15:12.535Z,1.40
2018-12-14T07:17:40.039Z,1.50
2018-12-14T07:20:07.633Z,1.50
2018-12-14T07:22:35.139Z,1.50
2018-12-14T07:25:02.754Z,1.50
2018-12-14T07:27:30.249Z,1.40
2018-12-14T07:29:57.781Z,1.40
2018-12-14T07:32:25.391Z,1.40
2018-12-14T07:34:53.046Z,1.30
2018-12-14T07:37:20.576Z,1.40
2018-12-14T07:39:48.113Z,1.60
2018-12-14T07:42:15.611Z,1.60
2018-12-14T07:44:43.321Z,1.50
2018-12-14T07:47:11.783Z,1.40
2018-12-14T07:49:39.544Z,1.50
2018-12-14T07:52:07.084Z,1.50
2018-12-14T07:54:34.586Z,1.50
2018-12-14T07:57:02.139Z,1.50
2018-12-14T07:59:29.654Z,1.50
2018-12-14T08:01:57.186Z,1.50
2018-12-14T08:04:25.186Z,1.50
2018-12-14T08:06:52.758Z,1.50
2018-12-14T08:09:20.360Z,1.50
2018-12-14T08:11:47.853Z,1.50
2018-12-14T08:14:15.389Z,1.60
2018-12-14T08:16:43.173Z,1.60
2018-12-14T08:19:10.710Z,1.60
2018-12-14T08:21:38.209Z,1.70
2018-12-14T08:24:05.752Z,1.70
2018-12-14T08:26:33.246Z,1.70
2018-12-14T08:29:00.741Z,1.60
2018-12-14T08:31:28.290Z,1.70
2018-12-14T08:33:55.914Z,1.70
2018-12-14T08:36:23.449Z,1.60
2018-12-14T08:38:51.287Z,1.60
2018-12-14T08:41:19.160Z,1.60
2018-12-14T08:43:46.773Z,1.60
2018-12-14T08:46:14.569Z,1.50
2018-12-14T08:48:42.092Z,1.60
2018-12-14T08:51:09.669Z,1.60
2018-12-14T08:53:37.477Z,1.60
2018-12-14T08:56:04.970Z,1.60
2018-12-14T08:58:32.505Z,1.60
2018-12-14T09:01:00.041Z,1.60
2018-12-14T09:03:27.549Z,1.60
2018-12-14T09:05:55.090Z,1.60
2018-12-14T09:08:22.597Z,1.60
2018-12-14T09:10:50.140Z,1.60
2018-12-14T09:13:17.637Z,1.50
2018-12-14T09:15:45.885Z,1.60
2018-12-14T09:18:13.729Z,1.50
2018-12-14T09:20:41.270Z,1.60
2018-12-14T09:23:08.770Z,1.50
2018-12-14T09:25:36.319Z,1.50
2018-12-14T09:28:03.865Z,1.60
2018-12-14T09:30:31.425Z,1.60
2018-12-14T09:32:58.933Z,1.60
2018-12-14T09:35:26.728Z,1.70
2018-12-14T09:37:54.257Z,1.60
2018-12-14T09:40:21.837Z,1.60
2018-12-14T09:42:49.381Z,1.60
2018-12-14T09:45:17.162Z,1.60
2018-12-14T09:47:44.702Z,1.70
2018-12-14T09:50:12.361Z,1.70
2018-12-14T09:52:39.888Z,1.80
2018-12-14T09:55:07.400Z,1.80
2018-12-14T09:57:34.933Z,1.80
2018-12-14T10:00:02.467Z,1.70
2018-12-14T10:02:30.016Z,1.70
2018-12-14T10:04:57.920Z,1.70
2018-12-14T10:07:25.417Z,1.70
2018-12-14T10:09:52.962Z,1.80
2018-12-14T10:12:20.453Z,1.80
2018-12-14T10:14:47.950Z,1.80
2018-12-14T10:17:15.488Z,1.90
2018-12-14T10:19:43.021Z,1.90
2018-12-14T10:22:10.521Z,1.90
2018-12-14T10:24:38.154Z,1.90
2018-12-14T10:27:05.653Z,1.90
2018-12-14T10:29:33.189Z,1.90
2018-12-14T10:32:00.680Z,1.80
2018-12-14T10:34:28.214Z,1.90
2018-12-14T10:36:56.336Z,1.90
2018-12-14T10:39:23.879Z,1.90
2018-12-14T10:41:52.245Z,1.90
2018-12-14T10:44:19.781Z,1.90
2018-12-14T10:46:47.316Z,1.90
2018-12-14T10:49:14.807Z,1.90
2018-12-14T10:51:42.341Z,2.00
2018-12-14T10:54:09.971Z,1.90
2018-12-14T10:56:37.510Z,2.00
2018-12-14T10:59:05.008Z,2.10
2018-12-14T11:01:38.161Z,2.00
2018-12-14T11:04:05.658Z,2.00
2018-12-14T11:06:33.214Z,1.90
2018-12-14T11:09:00.740Z,2.00
2018-12-14T11:11:28.238Z,2.00
2018-12-14T11:13:55.773Z,1.90
2018-12-14T11:16:23.269Z,2.00
2018-12-14T11:18:50.801Z,2.10
2018-12-14T11:21:18.340Z,2.00
2018-12-14T11:23:46.879Z,1.90
2018-12-14T11:26:14.434Z,1.90
2018-12-14T11:28:41.925Z,2.00
2018-12-14T11:31:09.453Z,2.00
2018-12-14T11:33:36.949Z,2.10
2018-12-14T11:36:04.533Z,2.00
2018-12-14T11:38:32.040Z,1.90
2018-12-14T11:40:59.534Z,2.00
2018-12-14T11:43:27.352Z,2.00
2018-12-14T11:45:54.844Z,2.00
2018-12-14T11:48:22.453Z,2.10
2018-12-14T11:50:51.874Z,2.00
2018-12-14T11:53:20.368Z,2.00
2018-12-14T11:55:49.129Z,2.10
2018-12-14T11:58:16.669Z,2.20
2018-12-14T12:00:44.240Z,2.30
2018-12-14T12:03:11.772Z,2.40
2018-12-14T12:05:39.260Z,2.40
2018-12-14T12:08:08.216Z,2.50
2018-12-14T12:10:35.889Z,2.30
2018-12-14T12:13:03.423Z,2.50
2018-12-14T12:15:30.926Z,2.50
2018-12-14T12:17:58.459Z,2.50
2018-12-14T12:20:25.948Z,2.50
2018-12-14T12:22:53.477Z,2.70
2018-12-14T12:25:20.968Z,2.70
2018-12-14T12:27:48.548Z,2.70
2018-12-14T12:30:16.126Z,2.70
2018-12-14T12:32:43.652Z,2.70
2018-12-14T12:35:11.183Z,2.40
2018-12-14T12:37:38.714Z,2.40
2018-12-14T12:40:06.398Z,2.50
2018-12-14T12:42:33.895Z,2.50
2018-12-14T12:45:01.434Z,2.40
2018-12-14T12:47:28.932Z,2.60
2018-12-14T12:49:56.474Z,2.50
2018-12-14T12:52:24.000Z,2.60
2018-12-14T12:54:51.820Z,2.70
2018-12-14T12:57:19.321Z,2.60
2018-12-14T12:59:46.850Z,2.60
2018-12-14T13:02:14.345Z,2.60
2018-12-14T13:04:41.950Z,2.40
2018-12-14T13:07:09.450Z,2.30
2018-12-14T13:09:36.982Z,2.40
2018-12-14T13:12:04.481Z,2.30
2018-12-14T13:14:32.009Z,2.30
2018-12-14T13:16:59.614Z,2.20
2018-12-14T13:19:27.152Z,2.30
2018-12-14T13:21:54.684Z,2.30
2018-12-14T13:24:22.386Z,2.40
2018-12-14T13:26:49.885Z,2.40
2018-12-14T13:29:17.417Z,2.40
2018-12-14T13:31:44.910Z,2.20
2018-12-14T13:34:12.440Z,2.30
2018-12-14T13:36:39.940Z,2.30
2018-12-14T13:39:07.740Z,2.20
2018-12-14T13:41:35.241Z,2.30
2018-12-14T13:44:02.779Z,2.40
2018-12-14T13:46:30.272Z,2.40
2018-12-14T13:49:02.761Z,2.40
2018-12-14T13:51:27.318Z,2.30
2018-12-14T13:53:54.853Z,2.30
2018-12-14T13:56:22.686Z,2.20
2018-12-14T13:58:50.232Z,2.30
2018-12-14T14:01:17.732Z,2.40
2018-12-14T14:03:45.224Z,2.20
2018-12-14T14:06:12.758Z,2.40
2018-12-14T14:08:40.578Z,2.30
2018-12-14T14:11:08.116Z,2.30
2018-12-14T14:13:35.617Z,2.30
2018-12-14T14:16:03.155Z,2.30
2018-12-14T14:18:30.653Z,2.30
2018-12-14T14:20:58.189Z,2.20
2018-12-14T14:23:25.684Z,2.30
2018-12-14T14:25:53.569Z,2.30
2018-12-14T14:28:21.101Z,2.20
2018-12-14T14:30:48.704Z,2.20
2018-12-14T14:33:16.254Z,2.40
2018-12-14T14:35:43.755Z,2.30
2018-12-14T14:38:11.380Z,2.30
2018-12-14T14:40:39.115Z,2.30
2018-12-14T14:43:06.654Z,2.20
2018-12-14T14:45:34.190Z,2.20
2018-12-14T14:48:01.717Z,2.00
2018-12-14T14:50:29.257Z,1.90
2018-12-14T14:52:56.753Z,1.70
2018-12-14T14:55:24.289Z,1.60
2018-12-14T14:57:52.052Z,1.70
2018-12-14T15:00:19.716Z,1.80
2018-12-14T15:02:47.532Z,1.80
2018-12-14T15:05:15.073Z,1.90
2018-12-14T15:07:42.584Z,1.90
2018-12-14T15:10:10.318Z,1.80
2018-12-14T15:12:37.853Z,1.80
2018-12-14T15:15:06.782Z,1.90
2018-12-14T15:17:34.649Z,2.00
2018-12-14T15:20:02.423Z,2.00
2018-12-14T15:22:29.948Z,2.10
2018-12-14T15:28:03.108Z,2.00
2018-12-14T15:30:30.645Z,2.10
2018-12-14T15:32:58.145Z,2.10
2018-12-14T15:35:25.841Z,2.10
2018-12-14T15:37:53.337Z,2.00
2018-12-14T15:40:20.871Z,1.90
2018-12-14T15:42:48.368Z,1.80
2018-12-14T15:45:15.901Z,1.80
2018-12-14T15:47:43.392Z,1.80
2018-12-14T15:50:10.997Z,1.80
2018-12-14T15:52:38.499Z,1.70
2018-12-14T15:55:07.546Z,1.80
2018-12-14T15:57:35.113Z,1.80
2018-12-14T16:00:02.644Z,1.70
2018-12-14T16:02:30.344Z,1.60
2018-12-14T16:04:57.884Z,1.60
2018-12-14T16:07:25.448Z,1.70
2018-12-14T16:09:52.992Z,1.70
2018-12-14T16:12:20.520Z,1.70
2018-12-14T16:14:48.053Z,1.70
2018-12-14T16:17:15.545Z,1.70
2018-12-14T16:19:43.086Z,1.60
2018-12-14T16:22:10.594Z,1.60
2018-12-14T16:24:38.142Z,1.60
2018-12-14T16:27:05.640Z,1.50
2018-12-14T16:29:33.139Z,1.40
2018-12-14T16:32:00.878Z,1.40
2018-12-14T16:34:28.369Z,1.30
2018-12-14T16:36:55.904Z,1.30
2018-12-14T16:39:23.404Z,1.50
2018-12-14T16:41:50.941Z,1.50
2018-12-14T16:44:18.441Z,1.60
2018-12-14T16:46:45.982Z,1.60
2018-12-14T16:49:13.479Z,1.70
2018-12-14T16:51:41.102Z,1.60
2018-12-14T16:54:08.631Z,1.70
2018-12-14T16:56:36.166Z,1.70
2018-12-14T16:59:04.748Z,1.60
2018-12-14T17:01:32.291Z,1.60
2018-12-14T17:03:59.787Z,1.70
2018-12-14T17:06:28.289Z,1.80
2018-12-14T17:08:55.786Z,1.50
2018-12-14T17:11:23.277Z,1.60
2018-12-14T17:13:50.821Z,1.60
2018-12-14T17:16:18.391Z,1.80
2018-12-14T17:18:45.933Z,1.80
2018-12-14T17:21:13.425Z,1.90
2018-12-14T17:23:42.546Z,1.90
2018-12-14T17:26:12.701Z,1.90
2018-12-14T17:28:40.597Z,1.90
2018-12-14T17:31:08.089Z,2.00
2018-12-14T17:33:36.190Z,2.10
2018-12-14T17:36:03.936Z,2.10
2018-12-14T17:38:31.533Z,2.00
2018-12-14T17:40:59.037Z,1.90
2018-12-14T17:43:26.584Z,1.80
2018-12-14T17:45:54.095Z,1.80
2018-12-14T17:48:21.617Z,1.80
2018-12-14T17:50:49.116Z,1.80
2018-12-14T17:53:16.629Z,2.00
2018-12-14T17:55:44.122Z,2.00
2018-12-14T17:58:11.645Z,1.90
2018-12-14T18:00:39.136Z,2.00
2018-12-14T18:03:06.646Z,2.20
2018-12-14T18:05:34.160Z,2.20
2018-12-14T18:08:01.674Z,2.10
2018-12-14T18:10:29.181Z,2.10
2018-12-14T18:12:56.748Z,2.10
2018-12-14T18:15:24.241Z,2.10
2018-12-14T18:17:51.736Z,2.10
2018-12-14T18:20:19.256Z,1.90
2018-12-14T18:22:46.816Z,1.90
2018-12-14T18:25:14.697Z,1.90
2018-12-14T18:27:42.196Z,1.90
2018-12-14T18:30:09.790Z,1.80
2018-12-14T18:32:37.284Z,1.80
2018-12-14T18:35:05.740Z,1.80
2018-12-14T18:37:33.233Z,1.60
2018-12-14T18:40:00.981Z,1.70
2018-12-14T18:42:28.473Z,1.80
2018-12-14T18:44:55.984Z,1.70
2018-12-14T18:47:23.514Z,1.60
2018-12-14T18:49:51.034Z,1.60
2018-12-14T18:52:18.537Z,1.70
2018-12-14T18:54:46.054Z,1.70
2018-12-14T18:57:13.541Z,1.70
2018-12-14T18:59:41.178Z,1.60
2018-12-14T19:02:08.751Z,1.70
2018-12-14T19:04:36.245Z,1.80
2018-12-14T19:07:03.829Z,1.70
2018-12-14T19:09:31.321Z,1.60
2018-12-14T19:11:58.856Z,1.60
2018-12-14T19:14:26.352Z,1.70
2018-12-14T19:16:53.878Z,1.90
2018-12-14T19:19:21.378Z,1.90
2018-12-14T19:21:49.199Z,1.80
2018-12-14T19:24:16.688Z,1.60
2018-12-14T19:26:44.283Z,1.50
2018-12-14T19:29:11.826Z,1.60
2018-12-14T19:31:39.345Z,1.70
2018-12-14T19:34:06.929Z,1.80
2018-12-14T19:36:35.402Z,1.70
2018-12-14T19:39:04.438Z,1.60
2018-12-14T19:41:32.107Z,1.60
2018-12-14T19:43:59.603Z,1.50
2018-12-14T19:46:27.132Z,1.60
2018-12-14T19:48:54.631Z,1.50
2018-12-14T19:51:22.188Z,1.60
2018-12-14T19:53:49.676Z,1.60
2018-12-14T19:56:17.260Z,1.60
2018-12-14T19:58:44.892Z,1.50
2018-12-14T20:01:12.389Z,1.50
2018-12-14T20:03:40.013Z,1.50
2018-12-14T20:06:07.546Z,1.50
2018-12-14T20:08:35.081Z,1.60
2018-12-14T20:11:02.639Z,1.70
2018-12-14T20:13:30.133Z,1.60
2018-12-14T20:15:57.930Z,1.60
2018-12-14T20:18:25.536Z,1.50
2018-12-14T20:20:53.034Z,1.50
2018-12-14T20:23:20.629Z,1.60
2018-12-14T20:25:48.124Z,1.50
2018-12-14T20:28:15.673Z,1.50
2018-12-14T20:30:43.461Z,1.50
2018-12-14T20:33:10.962Z,1.40
2018-12-14T20:35:38.505Z,1.50
2018-12-14T20:38:07.874Z,1.60
2018-12-14T20:40:35.425Z,1.50
2018-12-14T20:43:03.592Z,1.50
2018-12-14T20:45:31.128Z,1.50
2018-12-14T20:47:58.625Z,1.50
2018-12-14T20:50:26.177Z,1.50
2018-12-14T20:52:53.677Z,1.50
2018-12-14T20:55:21.213Z,1.50
2018-12-14T20:57:48.709Z,1.40
2018-12-14T21:00:16.261Z,1.30
2018-12-14T21:02:43.769Z,1.40
2018-12-14T21:05:11.288Z,1.50
2018-12-14T21:07:38.836Z,1.40
2018-12-14T21:10:06.537Z,1.40
2018-12-14T21:12:34.032Z,1.50
2018-12-14T21:15:01.564Z,1.50
2018-12-14T21:17:29.062Z,1.50
2018-12-14T21:19:56.649Z,1.50
2018-12-14T21:22:24.140Z,1.50
2018-12-14T21:24:51.677Z,1.40
2018-12-14T21:27:19.177Z,1.40
2018-12-14T21:29:46.721Z,1.30
2018-12-14T21:32:14.339Z,1.30
2018-12-14T21:34:41.890Z,1.30
2018-12-14T21:37:09.390Z,1.20
2018-12-14T21:39:36.893Z,1.20
2018-12-14T21:42:04.434Z,1.30
2018-12-14T21:44:31.937Z,1.10
2018-12-14T21:46:59.484Z,1.20
2018-12-14T21:49:26.976Z,1.40
2018-12-14T21:51:54.524Z,1.60
2018-12-14T21:54:22.028Z,1.70
2018-12-14T21:56:49.562Z,1.60
2018-12-14T21:59:17.057Z,1.50
2018-12-14T22:01:44.601Z,1.50
2018-12-14T22:04:12.455Z,1.50
2018-12-14T22:06:40.320Z,1.50
2018-12-14T22:09:08.089Z,1.60
2018-12-14T22:11:35.584Z,1.70
2018-12-14T22:14:03.110Z,1.60
2018-12-14T22:16:30.604Z,1.60
2018-12-14T22:18:58.148Z,1.40
2018-12-14T22:21:25.649Z,1.50
2018-12-14T22:23:53.425Z,1.50
2018-12-14T22:26:21.185Z,1.40
2018-12-14T22:28:48.741Z,1.40
2018-12-14T22:31:16.243Z,1.50
2018-12-14T22:33:43.740Z,1.50
2018-12-14T22:36:11.393Z,1.40
2018-12-14T22:38:38.889Z,1.60
2018-12-14T22:41:06.421Z,1.60
2018-12-14T22:43:33.913Z,1.60
2018-12-14T22:46:01.444Z,1.40
2018-12-14T22:48:28.946Z,1.50
2018-12-14T22:50:56.480Z,1.50
2018-12-14T22:53:23.973Z,1.40
2018-12-14T22:55:51.505Z,1.30
2018-12-14T22:58:19.001Z,1.30
2018-12-14T23:00:52.653Z,1.40
2018-12-14T23:03:20.889Z,1.40
2018-12-14T23:05:49.461Z,1.40
2018-12-14T23:08:16.995Z,1.30
2018-12-14T23:10:44.489Z,1.50
2018-12-14T23:13:12.339Z,1.50
2018-12-14T23:15:39.839Z,1.50
2018-12-14T23:18:07.448Z,1.40
2018-12-14T23:20:34.953Z,1.30
2018-12-14T23:23:02.980Z,1.10
2018-12-14T23:25:30.481Z,1.10
2018-12-14T23:27:57.977Z,1.10
2018-12-14T23:30:25.517Z,1.20
2018-12-14T23:32:53.008Z,1.20
2018-12-14T23:35:20.541Z,1.20
2018-12-14T23:37:48.039Z,1.30
2018-12-14T23:40:15.569Z,1.30
2018-12-14T23:42:43.097Z,1.20
2018-12-14T23:45:10.697Z,1.20
2018-12-14T23:47:38.301Z,1.10
2018-12-14T23:50:05.936Z,1.10
2018-12-14T23:52:33.469Z,1.10
2018-12-14T23:55:00.965Z,1.10
2018-12-14T23:57:28.508Z,1.20
2018-12-14T23:59:55.992Z,1.30
